EPKTEPGD

Guest
Details From EPKT - Pyrzowice
To EPGD - Lech Walesa
Flight Number -
Tags Generated
Created
Modified
Stats Distance 236 nm / 438 km
Max Altitude 0 ft / 0 m
Waypoints 3
Social Downloads 6
Likes 0
Share VATSIM

Download

Looking for another format? Having issues loading an existing format? Contact us
Advertisement - Login to hide

Notes

Generated

Route

EPKT R1850 EPGD

ID Type Via Altitude Latitude Longitude Leg Dist Tot Dist Heading (true) Name
O EPKT APT - 0 ft / 0 m 50.47431˚ 19.05464˚ - 0 nm - -
R1850 FIX - 0 ft / 0 m 54.37127˚ 18.49172˚ 234 nm 234 nm 355° / 355° -
O EPGD APT - 0 ft / 0 m 54.38107˚ 18.45205˚ 1 nm 236 nm 293° / 293° -

Altitude Profile

Advertisement - Login to hide

Weather


0- 5 10 15 20 25 30 35+ Temperature / ° C

Clouds and Precipitation
Forecast for 2017-12-17 18:00 UTC. Updated 2 hours ago

Ground ~20,000 ft ~40,000 ft Winds

EPKT

Details ICAO EPKT (KTW)
Name PYRZOWICE
Region Poland
Timezone Europe/Warsaw (UTC+1.0)
Stats Elevation 995 ft / 303 m (AMSL)
Location 50.474263° 19.074356°
Runways 1
Magnetic Variation 5.086° E

METAR

EPKT 171900Z 10003KT 1900 BR BKN016 M01/M02 Q1019

Decode

TAF

TAF EPKT 171730Z 1718/1818 02005KT 3000 BR BKN020 TEMPO 1718/1810 2000 -SN BR BKN007 PROB40 1718/1805 0600 FZFG BKN002 TEMPO 1810/1815 7000

Decode

Departure Runways

ID Width Length Bearing (true) Bearing (mag) Surface Threshold Offset Overrun Length
09 195 ft / 59 m 9,156 ft / 2,791 m 90.18° 85.09° Concrete 0 ft / 0 m 0 ft / 0 m
27 195 ft / 59 m 9,156 ft / 2,791 m 270.22° 265.13° Concrete 0 ft / 0 m 0 ft / 0 m

EPGD

Details ICAO EPGD (GDN)
Name LECH WALESA
Region Poland
Timezone Europe/Warsaw (UTC+1.0)
Stats Elevation 489 ft / 149 m (AMSL)
Location 54.376167° 18.471884°
Runways 1
Magnetic Variation 5.452° E

METAR

EPGD 171900Z 25004KT 220V300 0250 R29/0550N FZFG OVC001 M03/M04 Q1019

Decode

TAF

TAF TAF EPGD 171730Z 1718/1818 27005KT 0250 FZFG OVC001 TEMPO 1720/1809 2000 BR BKN004 BECMG 1809/1812 7000 NSW BKN015

Decode

Destination Runways

ID Width Length Bearing (true) Bearing (mag) Surface Threshold Offset Overrun Length
11 148 ft / 45 m 9,158 ft / 2,791 m 112.96° 107.51° Asphalt 0 ft / 0 m 0 ft / 0 m
29 148 ft / 45 m 9,158 ft / 2,791 m 293.00° 287.55° Asphalt 0 ft / 0 m 0 ft / 0 m

Approach Navaids

Runway Type Ident Frequency Range Bearing (true) Bearing (mag) Slope Elevation
29 Localiser IGDA 110.30 MHz 18 nm / 33 km 292.96° 287.51° - 489 ft / 149 m (AMSL)
29 Glidescope IGDA 110.30 MHz 10 nm / 19 km 292.98° 287.53° 2.90° 489 ft / 149 m (AMSL)
29 DME IGDA 110.30 MHz 18 nm / 33 km - - - 492 ft / 150 m (AMSL)

Popular Alternatives